Time;durP1;ratioP1;P1;durP2;ratioP2;P2;SDS_P1;SDS_P2;PMS_P1;PMS_P2;Temp;Humidity;BMP_temperature;BMP_pressure;BME280_temperature;BME280_humidity;BME280_pressure;Samples;Min_cycle;Max_cycle;Signal;HPM_P1;HPM_P2
2021/10/13 07:42:57;;;;;;;1.47;0.50;;;8.70;99.90;8.80;96923.00;;;;5020670;28;20200;-85
2021/10/13 07:45:46;;;;;;;0.40;0.40;;;8.80;99.90;8.90;96898.00;;;;5026743;28;20206;-85
2021/10/13 07:48:35;;;;;;;0.60;0.50;;;9.10;99.90;9.10;96914.00;;;;5027182;28;20251;-85
2021/10/13 07:51:24;;;;;;;0.83;0.60;;;9.20;99.90;9.30;96908.00;;;;5023665;28;20675;-85
2021/10/13 07:54:13;;;;;;;3.10;0.57;;;9.20;98.90;9.30;96933.00;;;;5027383;28;20217;-86
2021/10/13 07:57:02;;;;;;;1.23;0.67;;;9.30;98.60;9.30;96918.00;;;;5028778;28;20679;-87
2021/10/13 07:59:52;;;;;;;2.27;0.80;;;9.40;94.20;9.60;96908.00;;;;5019965;28;20685;-87
2021/10/13 08:02:45;;;;;;;0.30;0.30;;;9.50;95.10;9.50;96913.00;;;;5029935;28;20676;-85
2021/10/13 08:05:34;;;;;;;1.67;0.60;;;9.60;91.80;9.60;96880.00;;;;5027676;28;20275;-86
2021/10/13 08:08:23;;;;;;;0.40;0.40;;;9.70;91.60;9.60;96934.00;;;;5034128;28;20224;-87
2021/10/13 08:11:12;;;;;;;0.77;0.60;;;9.80;91.40;9.50;96920.00;;;;5032632;28;20204;-87
2021/10/13 08:14:01;;;;;;;1.13;0.57;;;9.70;89.40;9.90;96935.00;;;;5035736;28;20220;-85
2021/10/13 08:16:51;;;;;;;0.93;0.77;;;9.80;90.90;10.00;96928.00;;;;5036466;28;20202;-84
2021/10/13 08:19:40;;;;;;;2.90;0.67;;;9.90;90.90;10.10;96931.00;;;;5035311;28;20576;-87
2021/10/13 08:22:28;;;;;;;0.90;0.57;;;10.00;90.80;10.10;96923.00;;;;5033429;28;20228;-86
2021/10/13 08:25:18;;;;;;;0.40;0.40;;;10.10;87.60;10.30;96932.00;;;;5032002;28;20609;-86
2021/10/13 08:28:07;;;;;;;0.60;0.37;;;10.20;88.30;10.40;96924.00;;;;5033619;28;20217;-87
2021/10/13 08:30:56;;;;;;;1.40;0.37;;;10.30;87.60;10.30;96931.00;;;;5031207;28;20227;-87
2021/10/13 08:33:47;;;;;;;1.33;0.53;;;10.40;85.50;10.60;96926.00;;;;5018406;28;20225;-85
2021/10/13 08:36:36;;;;;;;0.40;0.40;;;10.50;85.00;10.70;96926.00;;;;5032133;28;20216;-84
2021/10/13 08:39:25;;;;;;;0.57;0.47;;;10.60;84.30;10.50;96943.00;;;;5035511;28;20205;-86
2021/10/13 08:42:14;;;;;;;0.53;0.50;;;10.70;80.70;10.40;96942.00;;;;5034263;28;20209;-85
2021/10/13 08:45:19;;;;;;;0.30;0.30;;;10.70;79.10;10.20;96929.00;;;;5032656;28;20605;-90
2021/10/13 08:48:17;;;;;;;0.30;0.30;;;10.70;76.30;10.30;96951.00;;;;5035496;28;20201;-89
2021/10/13 08:51:09;;;;;;;0.67;0.40;;;10.80;75.70;10.80;96937.00;;;;5034034;28;20205;-88
2021/10/13 08:54:06;;;;;;;0.60;0.40;;;10.80;76.70;10.90;96951.00;;;;5035221;28;20264;-88
2021/10/13 08:56:55;;;;;;;3.27;0.50;;;11.00;78.40;11.20;96940.00;;;;5034655;28;20248;-87
2021/10/13 08:59:47;;;;;;;0.50;0.40;;;11.00;75.40;11.60;96955.00;;;;5031831;28;20201;-88
2021/10/13 09:02:39;;;;;;;0.30;0.30;;;11.30;77.90;11.40;96962.00;;;;5037124;28;20197;-88
2021/10/13 09:05:29;;;;;;;0.40;0.40;;;11.50;73.80;11.80;96986.00;;;;5035450;28;20421;-88
2021/10/13 09:08:20;;;;;;;0.30;0.27;;;11.70;72.70;10.50;96960.00;;;;5034823;28;20208;-89
2021/10/13 09:11:09;;;;;;;1.20;0.47;;;11.60;69.10;11.20;96946.00;;;;5033151;28;20208;-85
2021/10/13 09:14:10;;;;;;;0.73;0.60;;;11.40;73.80;12.40;96951.00;;;;5022172;28;20601;-85
2021/10/13 09:17:01;;;;;;;0.50;0.50;;;11.70;75.40;12.70;96972.00;;;;5026559;28;20604;-84
2021/10/13 09:19:51;;;;;;;0.83;0.70;;;12.00;75.20;12.00;96963.00;;;;5021055;28;20201;-87
2021/10/13 09:22:55;;;;;;;0.47;0.40;;;12.10;71.20;12.60;96946.00;;;;5036374;28;20213;-86
2021/10/13 09:26:05;;;;;;;0.50;0.50;;;12.30;71.60;12.20;96986.00;;;;5040123;28;20194;-87
2021/10/13 09:28:59;;;;;;;0.40;0.40;;;12.30;69.00;11.80;96953.00;;;;5034577;28;20205;-86
2021/10/13 09:31:57;;;;;;;0.60;0.30;;;12.20;67.70;11.30;96969.00;;;;5032705;28;20205;-87
2021/10/13 09:34:47;;;;;;;2.17;0.47;;;12.10;65.40;12.30;96954.00;;;;5032208;28;20236;-87
2021/10/13 09:37:47;;;;;;;1.00;0.80;;;12.10;70.60;12.90;96967.00;;;;5034534;28;20225;-87
2021/10/13 09:40:36;;;;;;;0.60;0.50;;;12.30;71.10;13.10;96961.00;;;;5031960;28;20714;-86
2021/10/13 09:43:32;;;;;;;0.53;0.50;;;12.50;69.50;13.40;96958.00;;;;5033493;28;20236;-86
2021/10/13 09:46:23;;;;;;;0.77;0.70;;;12.80;69.80;12.40;96952.00;;;;5032885;28;20194;-88
2021/10/13 09:49:13;;;;;;;1.60;0.40;;;13.00;69.00;13.20;96958.00;;;;5031566;28;20208;-87
2021/10/13 09:52:09;;;;;;;0.60;0.60;;;13.10;69.30;13.90;96956.00;;;;5035141;28;20255;-88
2021/10/13 09:55:00;;;;;;;0.40;0.40;;;13.30;74.60;14.10;96968.00;;;;5030973;28;20216;-88
2021/10/13 09:57:50;;;;;;;1.50;0.50;;;13.50;74.90;13.30;96971.00;;;;5019694;28;20776;-87
2021/10/13 10:00:40;;;;;;;0.63;0.50;;;13.60;71.40;13.60;96971.00;;;;5032189;28;20679;-83
2021/10/13 10:03:29;;;;;;;2.30;0.83;;;13.70;72.00;14.10;96975.00;;;;5032688;28;20593;-85
2021/10/13 10:06:18;;;;;;;2.10;0.93;;;13.70;73.90;14.00;96992.00;;;;5034024;28;20209;-87
2021/10/13 10:09:07;;;;;;;1.50;0.60;;;13.80;73.60;13.20;97001.00;;;;5033086;28;20597;-87
2021/10/13 10:12:08;;;;;;;0.40;0.30;;;13.70;73.00;13.60;97019.00;;;;5023347;28;20205;-88
2021/10/13 10:15:11;;;;;;;0.50;0.40;;;13.60;72.80;12.30;97015.00;;;;5035807;28;20223;-88
2021/10/13 10:18:02;;;;;;;0.30;0.30;;;13.10;72.90;11.90;97009.00;;;;5032975;28;20610;-87
2021/10/13 10:20:53;;;;;;;0.40;0.40;;;12.80;74.20;11.90;97022.00;;;;5034974;28;20198;-86
2021/10/13 10:23:42;;;;;;;0.93;0.50;;;12.60;75.60;11.30;97016.00;;;;5036717;28;20217;-88
2021/10/13 10:26:34;;;;;;;1.70;0.50;;;12.20;76.40;11.50;96979.00;;;;5031969;28;20197;-88
2021/10/13 10:29:23;;;;;;;1.80;1.33;;;12.00;77.40;11.20;97024.00;;;;5036745;28;20209;-85
2021/10/13 10:32:18;;;;;;;0.80;0.70;;;11.90;77.00;12.10;97003.00;;;;5034233;28;20217;-86
2021/10/13 10:35:15;;;;;;;0.50;0.50;;;12.00;78.80;13.10;97003.00;;;;5033887;28;20232;-85
2021/10/13 10:38:06;;;;;;;0.40;0.40;;;12.40;80.50;13.90;97012.00;;;;5022504;28;20697;-85
2021/10/13 10:41:10;;;;;;;0.50;0.40;;;12.90;80.10;13.60;97019.00;;;;5033588;28;20224;-87
2021/10/13 10:44:30;;;;;;;0.47;0.30;;;13.40;75.50;12.10;97004.00;;;;5027373;28;20438;-89
2021/10/13 10:47:21;;;;;;;0.30;0.30;;;13.90;72.10;13.90;97023.00;;;;5032594;28;20205;-85
2021/10/13 10:50:11;;;;;;;3.00;0.93;;;13.90;72.40;14.60;97030.00;;;;5032396;28;20205;-84
2021/10/13 10:53:36;;;;;;;0.47;0.40;;;14.30;73.60;14.60;97020.00;;;;5018613;28;20201;-86
2021/10/13 10:56:30;;;;;;;0.30;0.30;;;14.50;70.10;14.70;97044.00;;;;5028351;28;20201;-86
2021/10/13 10:59:24;;;;;;;0.40;0.30;;;14.90;66.80;13.60;97028.00;;;;5031781;28;20260;-88
2021/10/13 11:02:12;;;;;;;0.30;0.30;;;15.00;64.20;13.80;97031.00;;;;5030698;28;20198;-84
2021/10/13 11:05:04;;;;;;;3.40;0.50;;;14.70;61.50;13.90;97019.00;;;;5026847;28;20229;-84
2021/10/13 11:07:54;;;;;;;2.33;0.93;;;14.60;62.40;14.20;97021.00;;;;5028238;28;20208;-84
2021/10/13 11:10:44;;;;;;;1.00;0.60;;;14.70;62.40;13.60;97018.00;;;;5023222;28;20217;-86
2021/10/13 11:13:32;;;;;;;0.43;0.30;;;14.50;61.80;13.30;97017.00;;;;5030663;28;20217;-87
2021/10/13 11:16:21;;;;;;;0.43;0.43;;;14.20;60.90;15.10;97023.00;;;;5031461;28;20666;-88
2021/10/13 11:19:18;;;;;;;2.73;2.53;;;14.50;63.40;14.00;97006.00;;;;5030584;28;20628;-86
2021/10/13 11:22:10;;;;;;;0.57;0.40;;;14.50;60.30;13.50;97017.00;;;;5030211;28;20205;-86
2021/10/13 11:25:12;;;;;;;0.90;0.70;;;14.40;59.70;14.20;97024.00;;;;5025164;28;20299;-84
2021/10/13 11:28:04;;;;;;;0.43;0.43;;;14.50;58.70;14.80;97008.00;;;;5029601;28;20693;-86
2021/10/13 11:30:53;;;;;;;0.77;0.40;;;14.80;58.50;14.50;97009.00;;;;5016950;28;20209;-85
2021/10/13 11:33:41;;;;;;;0.20;0.20;;;15.20;57.00;14.90;97002.00;;;;5028466;28;20225;-84
2021/10/13 11:36:30;;;;;;;0.37;0.30;;;15.60;56.30;14.40;97001.00;;;;5029156;28;20205;-82
2021/10/13 11:39:22;;;;;;;0.47;0.20;;;15.50;54.30;14.90;96978.00;;;;5026807;28;20225;-81
2021/10/13 11:42:16;;;;;;;0.50;0.40;;;15.40;55.60;15.00;97009.00;;;;5030055;28;20213;-84
2021/10/13 11:45:07;;;;;;;0.73;0.67;;;15.40;54.70;16.30;97019.00;;;;5016609;28;20224;-81
2021/10/13 11:48:01;;;;;;;0.30;0.20;;;15.90;55.40;15.20;97019.00;;;;5029797;28;20708;-85
2021/10/13 11:50:53;;;;;;;0.30;0.30;;;16.30;52.50;14.00;97007.00;;;;5026349;28;20209;-86
2021/10/13 11:53:42;;;;;;;0.30;0.27;;;16.10;52.70;13.90;97004.00;;;;5022404;28;20221;-85
2021/10/13 11:56:31;;;;;;;0.67;0.30;;;15.30;52.70;15.70;97005.00;;;;5029400;28;20582;-85
2021/10/13 11:59:21;;;;;;;0.40;0.30;;;15.50;54.40;14.80;97003.00;;;;5026013;28;20217;-83
2021/10/13 12:02:20;;;;;;;1.20;0.40;;;15.60;55.20;16.40;97006.00;;;;5026234;28;20204;-84
2021/10/13 12:05:10;;;;;;;0.43;0.37;;;15.80;54.90;16.60;97010.00;;;;5031012;28;20701;-85
2021/10/13 12:08:13;;;;;;;0.23;0.23;;;16.40;53.60;13.50;96981.00;;;;5031571;28;20198;-85
2021/10/13 12:11:08;;;;;;;0.40;0.30;;;15.80;52.10;15.30;96998.00;;;;5018340;28;20725;-82
2021/10/13 12:14:11;;;;;;;0.50;0.47;;;15.50;54.70;16.50;96998.00;;;;5029399;28;20702;-82
2021/10/13 12:17:01;;;;;;;4.47;1.80;;;16.10;54.40;16.10;96985.00;;;;5024819;28;20603;-81
2021/10/13 12:19:54;;;;;;;11.53;3.37;;;16.50;52.70;15.60;96962.00;;;;5029683;28;20229;-82
2021/10/13 12:22:49;;;;;;;11.10;3.93;;;16.80;52.20;15.70;97002.00;;;;5029409;28;20209;-84
2021/10/13 12:25:37;;;;;;;3.03;1.57;;;16.80;51.20;15.80;96978.00;;;;5033299;28;20227;-83
2021/10/13 12:28:29;;;;;;;6.33;2.00;;;16.80;50.80;17.10;97032.00;;;;5027985;28;20213;-85
2021/10/13 12:31:23;;;;;;;2.37;0.50;;;16.90;52.50;14.60;97032.00;;;;5028176;28;20209;-84
2021/10/13 12:34:16;;;;;;;2.73;1.33;;;16.70;50.70;13.80;97018.00;;;;5023627;28;20240;-83
2021/10/13 12:37:08;;;;;;;2.40;0.50;;;15.80;51.00;12.80;96962.00;;;;5027536;28;20229;-87
2021/10/13 12:40:16;;;;;;;0.70;0.30;;;15.10;51.40;14.00;96975.00;;;;5027642;28;20601;-86
2021/10/13 12:43:23;;;;;;;1.57;0.70;;;15.20;52.70;16.70;96983.00;;;;5029242;28;20197;-82
2021/10/13 12:46:30;;;;;;;0.50;0.20;;;15.80;52.90;16.90;96988.00;;;;5028404;28;20198;-83
2021/10/13 12:49:22;;;;;;;0.90;0.30;;;16.00;52.90;16.60;96984.00;;;;5027609;28;20197;-84
2021/10/13 12:52:14;;;;;;;0.40;0.40;;;16.20;51.80;16.60;96971.00;;;;5024979;28;20209;-84
2021/10/13 12:55:04;;;;;;;0.40;0.40;;;16.80;51.00;15.40;96964.00;;;;5027190;28;20233;-85
2021/10/13 12:57:52;;;;;;;0.53;0.40;;;16.90;51.10;18.40;96970.00;;;;5023259;28;20594;-85
2021/10/13 13:00:44;;;;;;;0.63;0.40;;;17.30;52.60;15.80;96970.00;;;;5032557;28;20233;-89
2021/10/13 13:03:33;;;;;;;0.40;0.30;;;17.50;49.40;16.30;96998.00;;;;5030285;28;20231;-85
2021/10/13 13:06:23;;;;;;;0.60;0.40;;;17.40;49.70;17.40;96987.00;;;;5031926;28;20201;-88
2021/10/13 13:09:12;;;;;;;0.47;0.40;;;17.60;50.10;16.80;97034.00;;;;5030233;28;20205;-86
2021/10/13 13:12:01;;;;;;;0.90;0.57;;;17.60;48.80;17.30;96981.00;;;;5029017;28;20206;-83
2021/10/13 13:14:49;;;;;;;0.50;0.50;;;17.40;48.60;16.30;96997.00;;;;5031996;28;20477;-85
2021/10/13 13:17:38;;;;;;;0.37;0.37;;;17.50;47.80;15.90;96970.00;;;;5033075;28;20208;-86
2021/10/13 13:20:30;;;;;;;0.47;0.40;;;17.40;48.00;17.30;97048.00;;;;5026258;28;20221;-84
2021/10/13 13:23:21;;;;;;;0.30;0.30;;;17.60;48.20;14.60;97019.00;;;;5032125;28;20201;-86
2021/10/13 13:26:10;;;;;;;0.57;0.50;;;15.90;48.30;14.30;97057.00;;;;5032296;28;20194;-84
2021/10/13 13:28:59;;;;;;;0.30;0.30;;;15.40;50.00;14.10;97056.00;;;;5030808;28;20204;-85
2021/10/13 13:31:48;;;;;;;0.43;0.43;;;15.20;50.20;13.00;97064.00;;;;5030352;28;20637;-87
2021/10/13 13:34:37;;;;;;;0.60;0.50;;;14.50;50.90;13.50;97050.00;;;;5031009;28;20232;-85
2021/10/13 13:37:26;;;;;;;1.67;0.60;;;14.10;51.90;13.90;97052.00;;;;5031493;28;20205;-86
2021/10/13 13:40:16;;;;;;;0.77;0.53;;;14.00;52.70;13.90;97030.00;;;;5023499;28;20217;-85
2021/10/13 13:43:06;;;;;;;0.70;0.70;;;14.00;52.70;14.60;97049.00;;;;5022249;28;20201;-86
2021/10/13 13:45:55;;;;;;;0.80;0.50;;;14.30;52.50;14.20;96997.00;;;;5030914;28;20205;-84
2021/10/13 13:48:45;;;;;;;0.50;0.50;;;14.50;52.20;14.70;97042.00;;;;5031028;28;20213;-84
2021/10/13 13:51:34;;;;;;;0.60;0.60;;;14.60;52.20;14.90;97009.00;;;;5027064;28;20205;-86
2021/10/13 13:54:23;;;;;;;0.47;0.47;;;15.20;50.80;16.20;97012.00;;;;5030820;28;20219;-84
2021/10/13 13:57:13;;;;;;;0.50;0.40;;;15.70;51.20;17.00;96997.00;;;;5031627;28;20209;-85
2021/10/13 14:00:02;;;;;;;3.33;0.57;;;16.50;50.30;17.20;97025.00;;;;5029942;28;20661;-84
2021/10/13 14:02:50;;;;;;;0.43;0.40;;;16.90;49.50;17.20;97013.00;;;;5024094;28;20212;-87
2021/10/13 14:05:40;;;;;;;1.87;1.63;;;17.40;48.60;18.10;97026.00;;;;5024869;28;20634;-85
2021/10/13 14:08:28;;;;;;;0.50;0.30;;;18.10;48.20;16.40;97016.00;;;;5031432;28;20637;-86
2021/10/13 14:11:17;;;;;;;0.50;0.40;;;17.90;47.70;18.40;97037.00;;;;5029340;28;20300;-86
2021/10/13 14:14:07;;;;;;;1.73;0.97;;;18.10;48.40;19.30;97064.00;;;;5029444;28;20217;-87
2021/10/13 14:16:56;;;;;;;2.00;0.40;;;18.80;48.90;19.00;97042.00;;;;5028978;28;20217;-86
2021/10/13 14:19:45;;;;;;;1.20;0.57;;;19.20;47.20;17.00;97081.00;;;;5030298;28;20233;-85
2021/10/13 14:22:37;;;;;;;0.53;0.53;;;19.10;47.10;16.30;97095.00;;;;5030913;28;20224;-91
2021/10/13 14:25:26;;;;;;;2.40;0.60;;;18.90;47.50;16.30;97061.00;;;;5030772;28;20233;-87
2021/10/13 14:28:15;;;;;;;0.50;0.50;;;18.00;47.30;17.70;97081.00;;;;5030068;28;20197;-87
2021/10/13 14:31:05;;;;;;;0.37;0.37;;;18.10;48.50;17.10;97135.00;;;;5024493;28;20205;-85
2021/10/13 14:34:04;;;;;;;0.50;0.50;;;18.00;48.80;16.10;97133.00;;;;5029721;28;20225;-85
2021/10/13 14:36:53;;;;;;;0.40;0.40;;;17.60;49.00;15.30;97147.00;;;;5026937;28;20205;-85
2021/10/13 14:39:45;;;;;;;1.40;1.07;;;17.00;49.30;15.40;97151.00;;;;5019763;28;20216;-85
2021/10/13 14:42:34;;;;;;;1.27;0.60;;;16.40;51.00;13.40;97144.00;;;;5027140;28;20449;-85
2021/10/13 14:45:22;;;;;;;0.67;0.50;;;15.50;51.80;13.50;97135.00;;;;5030543;28;20221;-85
2021/10/13 14:48:13;;;;;;;0.50;0.50;;;14.80;53.00;13.80;97140.00;;;;5028854;28;20209;-82
2021/10/13 14:51:02;;;;;;;1.17;1.03;;;14.40;53.70;12.90;97159.00;;;;5030155;28;20201;-85
2021/10/13 14:53:53;;;;;;;0.80;0.80;;;13.90;54.50;12.80;97155.00;;;;5026659;28;20225;-85
2021/10/13 14:56:44;;;;;;;1.47;1.37;;;13.40;56.20;12.50;97146.00;;;;5030355;28;20670;-85
2021/10/13 14:59:33;;;;;;;1.00;0.80;;;13.10;57.70;12.30;97156.00;;;;5028927;28;20220;-84
2021/10/13 15:02:22;;;;;;;1.07;1.03;;;12.80;58.40;11.00;97147.00;;;;5027639;28;20205;-83
2021/10/13 15:05:12;;;;;;;0.93;0.80;;;12.40;58.70;11.50;97161.00;;;;5024365;28;20231;-81
2021/10/13 15:08:01;;;;;;;0.50;0.50;;;12.20;59.50;11.80;97177.00;;;;5030188;28;20590;-83
2021/10/13 15:10:50;;;;;;;4.57;0.80;;;12.00;60.40;11.50;97174.00;;;;5028278;28;20213;-84
2021/10/13 15:13:39;;;;;;;0.57;0.57;;;11.80;61.50;11.10;97167.00;;;;5028866;28;20217;-80
2021/10/13 15:16:28;;;;;;;0.60;0.60;;;11.60;62.00;10.80;97161.00;;;;5026227;28;20206;-85
2021/10/13 15:19:23;;;;;;;1.03;0.93;;;11.40;63.20;10.80;97169.00;;;;5030029;28;20200;-86
2021/10/13 15:22:14;;;;;;;1.27;0.63;;;11.20;64.30;10.40;97169.00;;;;5022534;28;20835;-85
2021/10/13 15:25:11;;;;;;;0.70;0.67;;;11.00;66.90;10.00;97168.00;;;;5026152;28;20224;-86
2021/10/13 15:28:02;;;;;;;1.30;0.80;;;10.80;67.20;10.10;97180.00;;;;5024805;28;20201;-80
2021/10/13 15:30:51;;;;;;;1.00;0.90;;;10.50;68.10;9.60;97183.00;;;;5026091;28;20201;-81
2021/10/13 15:33:39;;;;;;;0.63;0.60;;;10.30;69.20;9.70;97183.00;;;;5025196;28;20236;-81
2021/10/13 15:36:28;;;;;;;2.63;1.00;;;10.10;70.20;9.40;97176.00;;;;5014856;28;20197;-81
2021/10/13 15:39:20;;;;;;;0.80;0.80;;;9.90;72.00;9.50;97182.00;;;;5027628;28;20212;-80
2021/10/13 15:42:09;;;;;;;0.60;0.60;;;9.80;72.60;9.30;97183.00;;;;5027590;28;20605;-82
2021/10/13 15:45:01;;;;;;;0.77;0.73;;;7.60;71.90;9.20;97181.00;;;;5021456;28;20275;-80
2021/10/13 15:47:49;;;;;;;0.80;0.70;;;9.60;73.60;9.10;97179.00;;;;5023913;28;20204;-81
2021/10/13 15:50:38;;;;;;;0.60;0.60;;;9.50;74.40;8.90;97179.00;;;;5026165;28;20236;-80
2021/10/13 15:53:28;;;;;;;0.70;0.70;;;9.40;75.70;9.00;97190.00;;;;5026661;28;20235;-82
2021/10/13 15:56:18;;;;;;;0.60;0.60;;;9.20;76.30;8.70;97185.00;;;;5028111;28;20201;-82
2021/10/13 15:59:08;;;;;;;0.80;0.80;;;9.20;76.90;8.70;97188.00;;;;5027883;28;20193;-82
2021/10/13 16:01:56;;;;;;;1.20;1.10;;;9.10;77.40;8.70;97183.00;;;;5029009;28;20229;-80
2021/10/13 16:04:45;;;;;;;1.67;1.00;;;9.00;77.80;8.70;97193.00;;;;5029042;28;20247;-82
2021/10/13 16:07:34;;;;;;;0.97;0.60;;;9.00;78.00;8.50;97197.00;;;;5025536;28;20560;-83
2021/10/13 16:10:23;;;;;;;0.67;0.67;;;8.90;78.80;8.50;97187.00;;;;5026479;28;20205;-84
2021/10/13 16:13:13;;;;;;;0.90;0.90;;;8.90;79.00;8.40;97200.00;;;;5028707;28;20206;-82
2021/10/13 16:16:03;;;;;;;2.40;0.90;;;8.80;79.30;8.50;97193.00;;;;5020224;28;20205;-82
2021/10/13 16:18:52;;;;;;;2.83;0.93;;;8.80;80.20;8.40;97213.00;;;;5028207;28;20263;-82
2021/10/13 16:21:41;;;;;;;1.00;0.90;;;8.70;80.70;8.30;97220.00;;;;5026277;28;20524;-82
2021/10/13 16:24:30;;;;;;;0.87;0.87;;;8.60;81.60;8.40;97213.00;;;;5020112;28;20256;-82
2021/10/13 16:27:19;;;;;;;1.53;1.00;;;8.60;81.70;8.20;97228.00;;;;5025432;28;20194;-81
2021/10/13 16:30:12;;;;;;;0.87;0.80;;;8.50;82.40;8.10;97223.00;;;;5024891;28;20205;-81
2021/10/13 16:33:04;;;;;;;0.80;0.80;;;8.50;82.60;8.10;97220.00;;;;5029198;28;20205;-81
2021/10/13 16:35:53;;;;;;;1.03;1.00;;;8.40;84.30;7.80;97228.00;;;;5040723;28;20642;-80
2021/10/13 16:38:41;;;;;;;2.00;1.07;;;8.30;87.10;7.80;97230.00;;;;5031211;28;20208;-81
2021/10/13 16:41:30;;;;;;;3.53;2.23;;;8.20;87.40;7.70;97240.00;;;;5041050;28;20228;-81
2021/10/13 16:44:19;;;;;;;6.37;3.70;;;8.20;88.90;7.70;97244.00;;;;5037885;28;20221;-81
2021/10/13 16:47:09;;;;;;;6.80;2.93;;;8.10;88.60;7.70;97252.00;;;;5033953;28;20209;-81
2021/10/13 16:49:58;;;;;;;7.77;2.60;;;8.00;89.70;7.50;97237.00;;;;5028605;28;20687;-81
2021/10/13 16:52:47;;;;;;;28.60;11.40;;;7.90;89.80;7.60;97245.00;;;;5039098;28;20208;-81
2021/10/13 16:55:36;;;;;;;3.53;1.90;;;7.90;90.20;7.50;97245.00;;;;5035484;28;20197;-80
2021/10/13 16:58:25;;;;;;;2.17;1.83;;;7.80;91.00;7.40;97258.00;;;;5034032;28;20208;-80
2021/10/13 17:01:15;;;;;;;3.57;3.27;;;7.80;91.30;7.40;97245.00;;;;5032644;28;20235;-81
2021/10/13 17:04:06;;;;;;;1.13;1.03;;;7.70;91.90;7.30;97249.00;;;;5035850;28;20618;-86
2021/10/13 17:06:56;;;;;;;1.67;1.23;;;7.70;92.30;7.30;97261.00;;;;5034185;28;20220;-86
2021/10/13 17:09:45;;;;;;;1.27;1.17;;;7.60;92.60;7.30;97258.00;;;;5036287;28;20212;-85
2021/10/13 17:12:35;;;;;;;1.20;0.90;;;7.60;92.90;7.10;97249.00;;;;5039676;28;20208;-85
2021/10/13 17:15:24;;;;;;;1.33;1.23;;;7.60;93.70;7.00;97248.00;;;;5040406;28;20240;-86
2021/10/13 17:18:14;;;;;;;1.27;1.17;;;7.50;94.60;6.90;97252.00;;;;5039288;28;20706;-86
2021/10/13 17:21:06;;;;;;;1.20;1.10;;;7.40;95.30;6.80;97270.00;;;;5036797;28;20206;-86
2021/10/13 17:23:55;;;;;;;1.00;0.77;;;7.30;96.50;6.60;97260.00;;;;5023927;28;20217;-87
2021/10/13 17:26:45;;;;;;;1.00;0.70;;;7.20;98.10;6.50;97258.00;;;;5026336;28;20212;-86
2021/10/13 17:29:39;;;;;;;1.43;1.23;;;7.10;98.80;6.40;97266.00;;;;5031740;28;20201;-86
2021/10/13 17:32:29;;;;;;;1.17;1.08;;;7.40;99.90;6.20;97262.00;;;;5027424;28;20406;-87
2021/10/13 17:35:25;;;;;;;1.70;1.00;;;6.80;99.90;6.10;97274.00;;;;5025871;28;20229;-87
2021/10/13 17:38:15;;;;;;;1.10;0.90;;;6.70;99.90;6.10;97279.00;;;;5032275;28;20640;-86
2021/10/13 17:41:05;;;;;;;1.40;1.10;;;6.60;99.90;6.10;97280.00;;;;5036197;28;20205;-87
2021/10/13 17:43:56;;;;;;;0.70;0.70;;;6.50;99.90;6.10;97286.00;;;;5033077;28;20255;-86
2021/10/13 17:46:47;;;;;;;1.07;0.97;;;6.50;99.90;5.90;97291.00;;;;5035697;28;20205;-86
2021/10/13 17:49:37;;;;;;;0.80;0.80;;;5.40;99.90;5.90;97288.00;;;;5039386;28;20233;-86
2021/10/13 17:52:38;;;;;;;0.93;0.80;;;6.40;99.90;5.80;97294.00;;;;5035942;28;20269;-86
2021/10/13 17:55:32;;;;;;;0.80;0.80;;;6.30;99.90;5.70;97294.00;;;;5038550;28;20213;-86
2021/10/13 17:58:22;;;;;;;1.33;1.27;;;6.20;99.90;5.70;97309.00;;;;5034688;28;20192;-87
2021/10/13 18:01:11;;;;;;;1.40;1.20;;;6.10;99.90;5.20;97308.00;;;;5026010;28;20578;-87
2021/10/13 18:04:00;;;;;;;1.90;1.80;;;6.00;99.90;5.20;97316.00;;;;5038451;28;20227;-86
2021/10/13 18:06:49;;;;;;;2.30;2.10;;;5.90;99.90;5.10;97319.00;;;;5031590;28;20215;-87
2021/10/13 18:09:44;;;;;;;1.83;1.30;;;5.80;99.90;5.00;97322.00;;;;5035604;28;20284;-86
2021/10/13 18:12:36;;;;;;;1.87;1.60;;;8.20;99.90;5.00;97329.00;;;;5036629;28;20200;-81
2021/10/13 18:15:25;;;;;;;6.60;4.03;;;5.60;99.90;5.00;97337.00;;;;5033949;28;20228;-81
2021/10/13 18:18:14;;;;;;;3.60;2.50;;;5.50;99.90;4.80;97337.00;;;;5031816;28;21050;-82
2021/10/13 18:21:04;;;;;;;1.93;1.40;;;5.50;99.90;4.30;97339.00;;;;5031718;28;20202;-82
2021/10/13 18:23:53;;;;;;;3.67;1.97;;;5.30;99.90;4.20;97338.00;;;;5034137;28;20622;-84
2021/10/13 18:26:43;;;;;;;2.00;1.87;;;5.20;99.90;4.20;97343.00;;;;5033599;28;20205;-87
2021/10/13 18:29:40;;;;;;;1.53;1.20;;;5.00;99.90;4.50;97344.00;;;;5029558;28;20708;-86
2021/10/13 18:32:33;;;;;;;1.03;0.93;;;4.90;99.90;4.40;97353.00;;;;5029861;28;20209;-87
2021/10/13 18:35:21;;;;;;;1.77;1.50;;;5.10;99.90;4.30;97355.00;;;;5031805;28;20213;-86
2021/10/13 18:38:10;;;;;;;2.10;1.53;;;5.00;99.90;4.50;97346.00;;;;5033048;28;20842;-82
2021/10/13 18:40:59;;;;;;;3.67;1.53;;;5.00;99.90;4.90;97348.00;;;;5031569;28;20580;-81
2021/10/13 18:43:48;;;;;;;6.80;3.20;;;5.00;99.90;5.50;97353.00;;;;5027282;28;20472;-81
2021/10/13 18:46:38;;;;;;;2.73;2.47;;;5.20;99.90;5.50;97363.00;;;;5020046;28;20194;-82
2021/10/13 18:49:27;;;;;;;1.80;1.63;;;5.40;99.90;4.90;97350.00;;;;5025343;28;20212;-87
2021/10/13 18:52:16;;;;;;;2.23;2.00;;;5.40;99.90;4.70;97342.00;;;;5028310;28;20209;-85
2021/10/13 18:55:06;;;;;;;2.57;1.83;;;5.40;99.90;4.30;97342.00;;;;5025562;28;20225;-86
2021/10/13 18:57:54;;;;;;;1.53;1.43;;;5.20;99.90;4.20;97341.00;;;;5028462;28;20589;-86
2021/10/13 19:00:43;;;;;;;1.50;1.40;;;5.10;99.90;4.40;97347.00;;;;5022068;28;20213;-86
2021/10/13 19:03:33;;;;;;;2.73;1.93;;;5.00;99.90;4.30;97342.00;;;;5026345;28;20229;-86
2021/10/13 19:06:22;;;;;;;4.07;3.67;;;3.90;99.90;4.10;97346.00;;;;5029088;28;20208;-87
2021/10/13 19:09:11;;;;;;;1.97;1.53;;;4.80;99.90;4.00;97342.00;;;;5016274;28;20197;-86
2021/10/13 19:12:00;;;;;;;1.40;1.27;;;4.80;99.90;3.80;97351.00;;;;5029686;28;20197;-89
2021/10/13 19:14:49;;;;;;;2.00;1.50;;;4.80;99.90;3.80;97365.00;;;;5023881;28;20217;-86
2021/10/13 19:17:39;;;;;;;1.10;1.00;;;4.50;99.90;3.60;97354.00;;;;5029248;28;20447;-86
2021/10/13 19:20:30;;;;;;;1.50;1.40;;;4.50;99.90;3.60;97360.00;;;;5019804;28;20425;-88
2021/10/13 19:23:19;;;;;;;1.00;1.00;;;4.30;99.90;3.50;97360.00;;;;5029576;28;20472;-86
2021/10/13 19:26:08;;;;;;;2.27;1.47;;;4.30;99.90;3.50;97366.00;;;;5031233;28;20217;-87
2021/10/13 19:28:57;;;;;;;1.30;1.07;;;4.20;99.90;3.60;97368.00;;;;5030981;28;20455;-87
2021/10/13 19:31:48;;;;;;;1.30;1.20;;;4.20;99.90;3.60;97365.00;;;;5029542;28;20437;-87
2021/10/13 19:34:37;;;;;;;1.40;1.30;;;4.30;99.90;3.50;97371.00;;;;5027315;28;20475;-87
2021/10/13 19:37:27;;;;;;;1.63;1.30;;;4.40;99.90;3.10;97364.00;;;;5029616;28;20432;-87
2021/10/13 19:40:18;;;;;;;1.53;1.43;;;4.10;99.90;2.60;97362.00;;;;5028542;28;20429;-87
2021/10/13 19:43:07;;;;;;;1.27;1.17;;;3.80;99.90;2.80;97363.00;;;;5031128;28;20466;-86
2021/10/13 19:45:56;;;;;;;1.10;1.00;;;5.00;99.90;3.00;97378.00;;;;5032177;28;20432;-87
2021/10/13 19:48:48;;;;;;;1.77;1.60;;;3.60;99.90;3.10;97368.00;;;;5029969;28;20816;-87
2021/10/13 19:51:37;;;;;;;2.30;1.70;;;3.60;99.90;2.80;97379.00;;;;5029900;28;20420;-87
2021/10/13 19:54:27;;;;;;;2.70;1.20;;;3.70;99.90;2.80;97383.00;;;;5028321;28;20451;-87
2021/10/13 19:57:16;;;;;;;2.77;1.97;;;3.50;99.90;2.90;97394.00;;;;5027155;28;20427;-86
2021/10/13 20:00:09;;;;;;;3.90;1.63;;;3.50;99.90;2.70;97395.00;;;;5030408;28;20427;-86
2021/10/13 20:02:58;;;;;;;1.30;1.20;;;3.50;99.90;2.90;97394.00;;;;5034714;28;20529;-86
2021/10/13 20:05:47;;;;;;;1.40;1.30;;;3.80;99.90;2.80;97404.00;;;;5035686;28;20427;-87
2021/10/13 20:08:36;;;;;;;1.87;1.40;;;4.00;99.90;2.70;97405.00;;;;5032970;28;20428;-88
2021/10/13 20:11:27;;;;;;;1.57;1.47;;;5.20;99.90;2.80;97406.00;;;;5027478;28;20421;-87
2021/10/13 20:14:16;;;;;;;2.60;1.53;;;3.70;99.90;2.80;97406.00;;;;5027787;28;20463;-86
2021/10/13 20:17:05;;;;;;;2.83;1.60;;;3.40;99.90;2.90;97408.00;;;;5031716;28;20431;-86
2021/10/13 20:19:57;;;;;;;4.50;1.67;;;4.80;99.90;3.00;97424.00;;;;5028423;28;20427;-86
2021/10/13 20:22:47;;;;;;;5.97;3.17;;;3.50;99.90;2.50;97412.00;;;;5033382;28;20435;-86
2021/10/13 20:25:35;;;;;;;2.97;1.60;;;4.20;99.90;2.60;97410.00;;;;5031791;28;20435;-86
2021/10/13 20:28:26;;;;;;;3.93;2.30;;;5.10;99.90;2.80;97403.00;;;;5027090;28;20800;-86